sensor_id;sensor_type;location;lat;lon;timestamp;P1;durP1;ratioP1;P2;durP2;ratioP2
27209;SDS011;14721;42.668;23.386;2022-09-02T00:01:00;15.10;;;8.35;;
27209;SDS011;14721;42.668;23.386;2022-09-02T00:03:32;11.10;;;7.38;;
27209;SDS011;14721;42.668;23.386;2022-09-02T00:05:59;13.90;;;8.05;;
27209;SDS011;14721;42.668;23.386;2022-09-02T00:08:28;12.18;;;7.45;;
27209;SDS011;14721;42.668;23.386;2022-09-02T00:10:57;9.73;;;7.15;;
27209;SDS011;14721;42.668;23.386;2022-09-02T00:13:25;13.05;;;8.32;;
27209;SDS011;14721;42.668;23.386;2022-09-02T00:15:51;13.48;;;8.15;;
27209;SDS011;14721;42.668;23.386;2022-09-02T00:18:17;12.25;;;8.32;;
27209;SDS011;14721;42.668;23.386;2022-09-02T00:20:44;14.05;;;7.70;;
27209;SDS011;14721;42.668;23.386;2022-09-02T00:23:12;16.13;;;9.48;;
27209;SDS011;14721;42.668;23.386;2022-09-02T00:25:41;13.73;;;8.68;;
27209;SDS011;14721;42.668;23.386;2022-09-02T00:28:11;15.55;;;9.02;;
27209;SDS011;14721;42.668;23.386;2022-09-02T00:30:41;11.70;;;7.57;;
27209;SDS011;14721;42.668;23.386;2022-09-02T00:33:10;14.15;;;8.07;;
27209;SDS011;14721;42.668;23.386;2022-09-02T00:35:41;15.60;;;8.00;;
27209;SDS011;14721;42.668;23.386;2022-09-02T00:38:07;11.00;;;7.85;;
27209;SDS011;14721;42.668;23.386;2022-09-02T00:40:33;15.95;;;8.57;;
27209;SDS011;14721;42.668;23.386;2022-09-02T00:43:00;17.40;;;9.27;;
27209;SDS011;14721;42.668;23.386;2022-09-02T00:45:29;15.82;;;7.90;;
27209;SDS011;14721;42.668;23.386;2022-09-02T00:47:54;12.05;;;8.18;;
27209;SDS011;14721;42.668;23.386;2022-09-02T00:50:22;14.10;;;8.35;;
27209;SDS011;14721;42.668;23.386;2022-09-02T00:52:52;13.70;;;7.95;;
27209;SDS011;14721;42.668;23.386;2022-09-02T00:55:24;17.40;;;9.32;;
27209;SDS011;14721;42.668;23.386;2022-09-02T00:58:00;13.30;;;8.50;;
27209;SDS011;14721;42.668;23.386;2022-09-02T01:00:30;15.10;;;7.93;;
27209;SDS011;14721;42.668;23.386;2022-09-02T01:03:04;14.88;;;8.23;;
27209;SDS011;14721;42.668;23.386;2022-09-02T01:05:33;16.23;;;9.20;;
27209;SDS011;14721;42.668;23.386;2022-09-02T01:08:01;15.18;;;9.13;;
27209;SDS011;14721;42.668;23.386;2022-09-02T01:10:29;16.55;;;9.45;;
27209;SDS011;14721;42.668;23.386;2022-09-02T01:13:04;14.27;;;8.65;;
27209;SDS011;14721;42.668;23.386;2022-09-02T01:15:38;13.25;;;8.52;;
27209;SDS011;14721;42.668;23.386;2022-09-02T01:18:08;18.80;;;10.10;;
27209;SDS011;14721;42.668;23.386;2022-09-02T01:20:37;15.32;;;8.95;;
27209;SDS011;14721;42.668;23.386;2022-09-02T01:23:02;15.00;;;8.63;;
27209;SDS011;14721;42.668;23.386;2022-09-02T01:25:29;17.00;;;9.75;;
27209;SDS011;14721;42.668;23.386;2022-09-02T01:27:59;15.25;;;8.52;;
27209;SDS011;14721;42.668;23.386;2022-09-02T01:30:29;19.10;;;10.23;;
27209;SDS011;14721;42.668;23.386;2022-09-02T01:32:56;16.48;;;8.50;;
27209;SDS011;14721;42.668;23.386;2022-09-02T01:35:21;11.90;;;8.25;;
27209;SDS011;14721;42.668;23.386;2022-09-02T01:37:47;13.48;;;8.32;;
27209;SDS011;14721;42.668;23.386;2022-09-02T01:40:14;12.93;;;8.80;;
27209;SDS011;14721;42.668;23.386;2022-09-02T01:42:43;13.93;;;8.43;;
27209;SDS011;14721;42.668;23.386;2022-09-02T01:45:10;13.77;;;7.85;;
27209;SDS011;14721;42.668;23.386;2022-09-02T01:47:35;16.70;;;8.20;;
27209;SDS011;14721;42.668;23.386;2022-09-02T01:50:02;12.30;;;8.38;;
27209;SDS011;14721;42.668;23.386;2022-09-02T01:52:30;10.57;;;7.03;;
27209;SDS011;14721;42.668;23.386;2022-09-02T01:54:57;15.82;;;7.82;;
27209;SDS011;14721;42.668;23.386;2022-09-02T01:57:23;15.10;;;7.57;;
27209;SDS011;14721;42.668;23.386;2022-09-02T01:59:49;10.27;;;7.00;;
27209;SDS011;14721;42.668;23.386;2022-09-02T02:02:16;9.15;;;6.45;;
27209;SDS011;14721;42.668;23.386;2022-09-02T02:04:43;11.02;;;6.10;;
27209;SDS011;14721;42.668;23.386;2022-09-02T02:07:10;12.43;;;6.93;;
27209;SDS011;14721;42.668;23.386;2022-09-02T02:09:38;11.93;;;6.78;;
27209;SDS011;14721;42.668;23.386;2022-09-02T02:12:06;9.05;;;6.03;;
27209;SDS011;14721;42.668;23.386;2022-09-02T02:14:32;9.20;;;5.47;;
27209;SDS011;14721;42.668;23.386;2022-09-02T02:16:58;6.75;;;4.25;;
27209;SDS011;14721;42.668;23.386;2022-09-02T02:19:24;7.63;;;3.72;;
27209;SDS011;14721;42.668;23.386;2022-09-02T02:21:49;5.75;;;4.53;;
27209;SDS011;14721;42.668;23.386;2022-09-02T02:24:15;7.72;;;3.50;;
27209;SDS011;14721;42.668;23.386;2022-09-02T02:26:42;5.55;;;3.15;;
27209;SDS011;14721;42.668;23.386;2022-09-02T02:29:15;6.38;;;3.88;;
27209;SDS011;14721;42.668;23.386;2022-09-02T02:31:41;6.43;;;3.95;;
27209;SDS011;14721;42.668;23.386;2022-09-02T02:34:07;8.02;;;3.55;;
27209;SDS011;14721;42.668;23.386;2022-09-02T02:36:35;7.32;;;3.65;;
27209;SDS011;14721;42.668;23.386;2022-09-02T02:39:02;8.38;;;4.07;;
27209;SDS011;14721;42.668;23.386;2022-09-02T02:41:28;5.25;;;3.35;;
27209;SDS011;14721;42.668;23.386;2022-09-02T02:43:55;7.13;;;3.10;;
27209;SDS011;14721;42.668;23.386;2022-09-02T02:46:21;6.35;;;3.28;;
27209;SDS011;14721;42.668;23.386;2022-09-02T02:48:47;5.53;;;3.45;;
27209;SDS011;14721;42.668;23.386;2022-09-02T02:51:20;6.88;;;3.55;;
27209;SDS011;14721;42.668;23.386;2022-09-02T02:53:47;5.47;;;3.25;;
27209;SDS011;14721;42.668;23.386;2022-09-02T02:56:12;4.57;;;3.08;;
27209;SDS011;14721;42.668;23.386;2022-09-02T02:58:38;5.13;;;3.42;;
27209;SDS011;14721;42.668;23.386;2022-09-02T03:01:04;5.95;;;3.70;;
27209;SDS011;14721;42.668;23.386;2022-09-02T03:03:29;6.53;;;3.80;;
27209;SDS011;14721;42.668;23.386;2022-09-02T03:05:57;6.25;;;4.15;;
27209;SDS011;14721;42.668;23.386;2022-09-02T03:08:22;10.90;;;3.78;;
27209;SDS011;14721;42.668;23.386;2022-09-02T03:10:51;8.55;;;3.75;;
27209;SDS011;14721;42.668;23.386;2022-09-02T03:13:19;8.52;;;4.00;;
27209;SDS011;14721;42.668;23.386;2022-09-02T03:15:46;7.30;;;4.40;;
27209;SDS011;14721;42.668;23.386;2022-09-02T03:18:14;8.45;;;4.55;;
27209;SDS011;14721;42.668;23.386;2022-09-02T03:20:41;7.30;;;4.82;;
27209;SDS011;14721;42.668;23.386;2022-09-02T03:23:07;5.93;;;3.90;;
27209;SDS011;14721;42.668;23.386;2022-09-02T03:25:33;7.50;;;4.25;;
27209;SDS011;14721;42.668;23.386;2022-09-02T03:27:59;7.35;;;4.00;;
27209;SDS011;14721;42.668;23.386;2022-09-02T03:30:27;7.03;;;4.07;;
27209;SDS011;14721;42.668;23.386;2022-09-02T03:32:55;9.15;;;4.53;;
27209;SDS011;14721;42.668;23.386;2022-09-02T03:35:24;7.63;;;4.63;;
27209;SDS011;14721;42.668;23.386;2022-09-02T03:37:51;10.43;;;4.55;;
27209;SDS011;14721;42.668;23.386;2022-09-02T03:40:18;7.90;;;3.88;;
27209;SDS011;14721;42.668;23.386;2022-09-02T03:42:47;8.00;;;4.57;;
27209;SDS011;14721;42.668;23.386;2022-09-02T03:45:13;7.13;;;4.80;;
27209;SDS011;14721;42.668;23.386;2022-09-02T03:47:59;9.77;;;4.97;;
27209;SDS011;14721;42.668;23.386;2022-09-02T03:50:26;6.28;;;4.32;;
27209;SDS011;14721;42.668;23.386;2022-09-02T03:52:58;7.68;;;4.30;;
27209;SDS011;14721;42.668;23.386;2022-09-02T03:55:25;11.80;;;4.63;;
27209;SDS011;14721;42.668;23.386;2022-09-02T03:57:51;7.30;;;4.32;;
27209;SDS011;14721;42.668;23.386;2022-09-02T04:00:19;7.72;;;4.15;;
27209;SDS011;14721;42.668;23.386;2022-09-02T04:02:50;7.97;;;4.47;;
27209;SDS011;14721;42.668;23.386;2022-09-02T04:05:18;10.15;;;5.57;;
27209;SDS011;14721;42.668;23.386;2022-09-02T04:07:44;9.48;;;5.00;;
27209;SDS011;14721;42.668;23.386;2022-09-02T04:10:10;8.80;;;5.40;;
27209;SDS011;14721;42.668;23.386;2022-09-02T04:12:36;12.13;;;6.38;;
27209;SDS011;14721;42.668;23.386;2022-09-02T04:15:03;9.20;;;5.80;;
27209;SDS011;14721;42.668;23.386;2022-09-02T04:17:30;8.52;;;4.78;;
27209;SDS011;14721;42.668;23.386;2022-09-02T04:20:00;8.65;;;5.40;;
27209;SDS011;14721;42.668;23.386;2022-09-02T04:22:25;8.38;;;4.95;;
27209;SDS011;14721;42.668;23.386;2022-09-02T04:24:51;10.27;;;6.18;;
27209;SDS011;14721;42.668;23.386;2022-09-02T04:27:18;11.50;;;6.45;;
27209;SDS011;14721;42.668;23.386;2022-09-02T04:29:43;8.30;;;5.68;;
27209;SDS011;14721;42.668;23.386;2022-09-02T04:32:09;13.85;;;7.45;;
27209;SDS011;14721;42.668;23.386;2022-09-02T04:34:34;12.23;;;6.55;;
27209;SDS011;14721;42.668;23.386;2022-09-02T04:37:01;11.35;;;6.93;;
27209;SDS011;14721;42.668;23.386;2022-09-02T04:39:28;17.08;;;5.55;;
27209;SDS011;14721;42.668;23.386;2022-09-02T04:41:54;10.65;;;6.60;;
27209;SDS011;14721;42.668;23.386;2022-09-02T04:44:20;19.58;;;6.25;;
27209;SDS011;14721;42.668;23.386;2022-09-02T04:46:46;14.07;;;8.02;;
27209;SDS011;14721;42.668;23.386;2022-09-02T04:49:12;12.65;;;7.32;;
27209;SDS011;14721;42.668;23.386;2022-09-02T04:51:38;13.35;;;6.78;;
27209;SDS011;14721;42.668;23.386;2022-09-02T04:54:04;17.70;;;8.10;;
27209;SDS011;14721;42.668;23.386;2022-09-02T04:56:36;15.50;;;6.85;;
27209;SDS011;14721;42.668;23.386;2022-09-02T04:59:08;15.82;;;8.50;;
27209;SDS011;14721;42.668;23.386;2022-09-02T05:01:34;9.23;;;6.10;;
27209;SDS011;14721;42.668;23.386;2022-09-02T05:04:04;11.90;;;7.47;;
27209;SDS011;14721;42.668;23.386;2022-09-02T05:06:31;16.17;;;9.52;;
27209;SDS011;14721;42.668;23.386;2022-09-02T05:08:59;11.60;;;6.50;;
27209;SDS011;14721;42.668;23.386;2022-09-02T05:11:26;9.27;;;5.95;;
27209;SDS011;14721;42.668;23.386;2022-09-02T05:13:54;9.98;;;6.60;;
27209;SDS011;14721;42.668;23.386;2022-09-02T05:16:22;12.68;;;7.20;;
27209;SDS011;14721;42.668;23.386;2022-09-02T05:18:50;9.05;;;5.45;;
27209;SDS011;14721;42.668;23.386;2022-09-02T05:21:17;8.60;;;6.05;;
27209;SDS011;14721;42.668;23.386;2022-09-02T05:23:44;9.90;;;6.32;;
27209;SDS011;14721;42.668;23.386;2022-09-02T05:26:10;11.20;;;6.15;;
27209;SDS011;14721;42.668;23.386;2022-09-02T05:28:37;13.50;;;6.85;;
27209;SDS011;14721;42.668;23.386;2022-09-02T05:31:08;9.40;;;5.97;;
27209;SDS011;14721;42.668;23.386;2022-09-02T05:33:37;12.80;;;6.93;;
27209;SDS011;14721;42.668;23.386;2022-09-02T05:36:06;10.32;;;6.13;;
27209;SDS011;14721;42.668;23.386;2022-09-02T05:38:33;10.18;;;6.13;;
27209;SDS011;14721;42.668;23.386;2022-09-02T05:41:08;10.55;;;5.82;;
27209;SDS011;14721;42.668;23.386;2022-09-02T05:43:39;10.30;;;5.50;;
27209;SDS011;14721;42.668;23.386;2022-09-02T05:46:06;12.57;;;6.90;;
27209;SDS011;14721;42.668;23.386;2022-09-02T05:48:33;8.70;;;5.30;;
27209;SDS011;14721;42.668;23.386;2022-09-02T05:51:18;12.40;;;6.57;;
27209;SDS011;14721;42.668;23.386;2022-09-02T05:53:45;11.77;;;6.82;;
27209;SDS011;14721;42.668;23.386;2022-09-02T05:56:21;10.52;;;6.00;;
27209;SDS011;14721;42.668;23.386;2022-09-02T05:58:47;11.55;;;6.47;;
27209;SDS011;14721;42.668;23.386;2022-09-02T06:01:14;10.13;;;5.55;;
27209;SDS011;14721;42.668;23.386;2022-09-02T06:03:42;12.60;;;6.80;;
27209;SDS011;14721;42.668;23.386;2022-09-02T06:06:08;9.75;;;6.53;;
27209;SDS011;14721;42.668;23.386;2022-09-02T06:08:34;10.13;;;5.93;;
27209;SDS011;14721;42.668;23.386;2022-09-02T06:11:01;8.27;;;5.28;;
27209;SDS011;14721;42.668;23.386;2022-09-02T06:13:28;9.25;;;5.65;;
27209;SDS011;14721;42.668;23.386;2022-09-02T06:15:54;10.07;;;6.18;;
27209;SDS011;14721;42.668;23.386;2022-09-02T06:18:23;9.15;;;6.15;;
27209;SDS011;14721;42.668;23.386;2022-09-02T06:20:49;9.30;;;5.47;;
27209;SDS011;14721;42.668;23.386;2022-09-02T06:23:15;11.07;;;6.63;;
27209;SDS011;14721;42.668;23.386;2022-09-02T06:25:43;9.40;;;6.07;;
27209;SDS011;14721;42.668;23.386;2022-09-02T06:28:10;8.40;;;5.72;;
27209;SDS011;14721;42.668;23.386;2022-09-02T06:30:38;11.35;;;6.43;;
27209;SDS011;14721;42.668;23.386;2022-09-02T06:33:05;10.13;;;6.35;;
27209;SDS011;14721;42.668;23.386;2022-09-02T06:35:35;7.68;;;5.55;;
27209;SDS011;14721;42.668;23.386;2022-09-02T06:38:02;9.02;;;5.90;;
27209;SDS011;14721;42.668;23.386;2022-09-02T06:40:27;9.95;;;6.00;;
27209;SDS011;14721;42.668;23.386;2022-09-02T06:42:53;9.55;;;6.07;;
27209;SDS011;14721;42.668;23.386;2022-09-02T06:45:23;11.77;;;6.53;;
27209;SDS011;14721;42.668;23.386;2022-09-02T06:47:49;10.48;;;6.22;;
27209;SDS011;14721;42.668;23.386;2022-09-02T06:50:19;9.70;;;6.05;;
27209;SDS011;14721;42.668;23.386;2022-09-02T06:52:45;11.40;;;7.05;;
27209;SDS011;14721;42.668;23.386;2022-09-02T06:55:11;9.35;;;5.78;;
27209;SDS011;14721;42.668;23.386;2022-09-02T06:57:38;10.18;;;6.53;;
27209;SDS011;14721;42.668;23.386;2022-09-02T07:00:05;12.35;;;6.45;;
27209;SDS011;14721;42.668;23.386;2022-09-02T07:02:34;10.60;;;7.22;;
27209;SDS011;14721;42.668;23.386;2022-09-02T07:05:01;11.85;;;6.53;;
27209;SDS011;14721;42.668;23.386;2022-09-02T07:07:40;9.75;;;7.00;;
27209;SDS011;14721;42.668;23.386;2022-09-02T07:10:08;11.93;;;6.85;;
27209;SDS011;14721;42.668;23.386;2022-09-02T07:12:43;9.82;;;6.80;;
27209;SDS011;14721;42.668;23.386;2022-09-02T07:15:09;11.80;;;6.88;;
27209;SDS011;14721;42.668;23.386;2022-09-02T07:17:35;14.30;;;7.22;;
27209;SDS011;14721;42.668;23.386;2022-09-02T07:20:00;10.57;;;6.78;;
27209;SDS011;14721;42.668;23.386;2022-09-02T07:22:27;16.42;;;8.30;;
27209;SDS011;14721;42.668;23.386;2022-09-02T07:24:54;15.48;;;7.72;;
27209;SDS011;14721;42.668;23.386;2022-09-02T07:27:20;11.20;;;7.30;;
27209;SDS011;14721;42.668;23.386;2022-09-02T07:29:46;11.88;;;6.53;;
27209;SDS011;14721;42.668;23.386;2022-09-02T07:32:16;16.45;;;8.40;;
27209;SDS011;14721;42.668;23.386;2022-09-02T07:34:43;13.50;;;8.10;;
27209;SDS011;14721;42.668;23.386;2022-09-02T07:37:12;10.82;;;7.50;;
27209;SDS011;14721;42.668;23.386;2022-09-02T07:39:38;12.43;;;7.40;;
27209;SDS011;14721;42.668;23.386;2022-09-02T07:42:04;11.18;;;6.78;;
27209;SDS011;14721;42.668;23.386;2022-09-02T07:44:31;13.10;;;7.18;;
27209;SDS011;14721;42.668;23.386;2022-09-02T07:46:56;11.52;;;6.95;;
27209;SDS011;14721;42.668;23.386;2022-09-02T07:49:22;11.43;;;6.80;;
27209;SDS011;14721;42.668;23.386;2022-09-02T07:51:48;9.10;;;6.18;;
27209;SDS011;14721;42.668;23.386;2022-09-02T07:54:16;9.57;;;6.00;;
27209;SDS011;14721;42.668;23.386;2022-09-02T07:56:45;9.13;;;6.18;;
27209;SDS011;14721;42.668;23.386;2022-09-02T07:59:13;9.73;;;5.28;;
27209;SDS011;14721;42.668;23.386;2022-09-02T08:01:39;9.23;;;5.45;;
27209;SDS011;14721;42.668;23.386;2022-09-02T08:04:07;8.90;;;5.45;;
27209;SDS011;14721;42.668;23.386;2022-09-02T08:06:34;10.60;;;5.70;;
27209;SDS011;14721;42.668;23.386;2022-09-02T08:09:05;9.63;;;6.18;;
27209;SDS011;14721;42.668;23.386;2022-09-02T08:11:37;10.98;;;6.32;;
27209;SDS011;14721;42.668;23.386;2022-09-02T08:14:07;12.05;;;5.70;;
27209;SDS011;14721;42.668;23.386;2022-09-02T08:16:34;8.10;;;5.80;;
27209;SDS011;14721;42.668;23.386;2022-09-02T08:19:00;9.13;;;5.63;;
27209;SDS011;14721;42.668;23.386;2022-09-02T08:24:11;9.55;;;6.28;;
27209;SDS011;14721;42.668;23.386;2022-09-02T08:26:38;8.73;;;5.50;;
27209;SDS011;14721;42.668;23.386;2022-09-02T08:29:04;9.23;;;5.63;;
27209;SDS011;14721;42.668;23.386;2022-09-02T08:31:31;9.95;;;6.18;;
27209;SDS011;14721;42.668;23.386;2022-09-02T08:36:26;9.73;;;6.10;;
27209;SDS011;14721;42.668;23.386;2022-09-02T08:38:52;10.13;;;5.07;;
27209;SDS011;14721;42.668;23.386;2022-09-02T08:41:23;7.82;;;4.50;;
27209;SDS011;14721;42.668;23.386;2022-09-02T08:43:53;8.52;;;4.72;;
27209;SDS011;14721;42.668;23.386;2022-09-02T08:46:21;8.95;;;5.20;;
27209;SDS011;14721;42.668;23.386;2022-09-02T08:49:06;7.82;;;4.97;;
27209;SDS011;14721;42.668;23.386;2022-09-02T08:51:44;8.77;;;5.32;;
27209;SDS011;14721;42.668;23.386;2022-09-02T08:54:30;10.93;;;5.03;;
27209;SDS011;14721;42.668;23.386;2022-09-02T08:56:58;9.20;;;5.35;;
27209;SDS011;14721;42.668;23.386;2022-09-02T08:59:24;17.20;;;7.53;;
27209;SDS011;14721;42.668;23.386;2022-09-02T09:10:38;8.48;;;4.90;;
27209;SDS011;14721;42.668;23.386;2022-09-02T09:21:06;8.75;;;5.40;;
27209;SDS011;14721;42.668;23.386;2022-09-02T09:23:37;7.30;;;5.35;;
27209;SDS011;14721;42.668;23.386;2022-09-02T09:26:09;13.00;;;7.13;;
27209;SDS011;14721;42.668;23.386;2022-09-02T09:28:45;10.80;;;6.07;;
27209;SDS011;14721;42.668;23.386;2022-09-02T09:31:13;15.32;;;7.82;;
27209;SDS011;14721;42.668;23.386;2022-09-02T09:39:37;12.18;;;5.72;;
27209;SDS011;14721;42.668;23.386;2022-09-02T09:41:57;9.65;;;6.10;;
27209;SDS011;14721;42.668;23.386;2022-09-02T09:44:50;7.95;;;4.97;;
27209;SDS011;14721;42.668;23.386;2022-09-02T09:47:17;9.95;;;5.32;;
27209;SDS011;14721;42.668;23.386;2022-09-02T09:49:50;10.20;;;5.30;;
27209;SDS011;14721;42.668;23.386;2022-09-02T09:52:21;8.10;;;5.40;;
27209;SDS011;14721;42.668;23.386;2022-09-02T09:55:13;10.23;;;6.68;;
27209;SDS011;14721;42.668;23.386;2022-09-02T09:57:39;8.80;;;5.53;;
27209;SDS011;14721;42.668;23.386;2022-09-02T10:00:27;8.95;;;6.50;;
27209;SDS011;14721;42.668;23.386;2022-09-02T10:03:00;9.10;;;5.72;;
27209;SDS011;14721;42.668;23.386;2022-09-02T10:07:58;10.40;;;6.75;;
27209;SDS011;14721;42.668;23.386;2022-09-02T10:10:27;12.23;;;6.70;;
27209;SDS011;14721;42.668;23.386;2022-09-02T10:12:57;9.48;;;6.82;;
27209;SDS011;14721;42.668;23.386;2022-09-02T10:16:28;10.30;;;6.30;;
27209;SDS011;14721;42.668;23.386;2022-09-02T10:30:20;11.57;;;6.47;;
27209;SDS011;14721;42.668;23.386;2022-09-02T10:35:39;8.95;;;6.07;;
27209;SDS011;14721;42.668;23.386;2022-09-02T10:40:50;11.82;;;6.25;;
27209;SDS011;14721;42.668;23.386;2022-09-02T10:43:24;12.02;;;5.93;;
27209;SDS011;14721;42.668;23.386;2022-09-02T10:46:11;9.50;;;5.82;;
27209;SDS011;14721;42.668;23.386;2022-09-02T10:57:25;9.90;;;6.20;;
27209;SDS011;14721;42.668;23.386;2022-09-02T11:00:09;11.73;;;6.28;;
27209;SDS011;14721;42.668;23.386;2022-09-02T11:13:25;10.60;;;6.40;;
27209;SDS011;14721;42.668;23.386;2022-09-02T11:18:53;12.65;;;6.75;;
27209;SDS011;14721;42.668;23.386;2022-09-02T11:21:28;12.00;;;7.07;;
27209;SDS011;14721;42.668;23.386;2022-09-02T11:24:20;12.10;;;6.95;;
27209;SDS011;14721;42.668;23.386;2022-09-02T11:30:00;10.55;;;6.93;;
27209;SDS011;14721;42.668;23.386;2022-09-02T11:35:24;10.60;;;6.95;;
27209;SDS011;14721;42.668;23.386;2022-09-02T11:37:59;10.40;;;6.95;;
27209;SDS011;14721;42.668;23.386;2022-09-02T11:43:45;10.40;;;6.30;;
27209;SDS011;14721;42.668;23.386;2022-09-02T11:51:57;10.93;;;7.07;;
27209;SDS011;14721;42.668;23.386;2022-09-02T11:54:48;11.98;;;7.03;;
27209;SDS011;14721;42.668;23.386;2022-09-02T11:57:23;21.25;;;7.43;;
27209;SDS011;14721;42.668;23.386;2022-09-02T12:08:03;9.95;;;7.53;;
27209;SDS011;14721;42.668;23.386;2022-09-02T12:18:41;11.23;;;7.15;;
27209;SDS011;14721;42.668;23.386;2022-09-02T12:21:14;11.93;;;7.45;;
27209;SDS011;14721;42.668;23.386;2022-09-02T12:26:25;13.30;;;7.00;;
27209;SDS011;14721;42.668;23.386;2022-09-02T12:29:10;14.68;;;8.32;;
27209;SDS011;14721;42.668;23.386;2022-09-02T12:31:52;15.88;;;9.40;;
27209;SDS011;14721;42.668;23.386;2022-09-02T12:36:47;13.48;;;8.13;;
27209;SDS011;14721;42.668;23.386;2022-09-02T12:50:28;14.73;;;9.23;;
27209;SDS011;14721;42.668;23.386;2022-09-02T12:56:04;11.18;;;7.63;;
27209;SDS011;14721;42.668;23.386;2022-09-02T12:58:46;15.85;;;8.95;;
27209;SDS011;14721;42.668;23.386;2022-09-02T13:01:23;12.38;;;8.27;;
27209;SDS011;14721;42.668;23.386;2022-09-02T13:04:22;14.68;;;8.63;;
27209;SDS011;14721;42.668;23.386;2022-09-02T13:07:03;14.30;;;8.98;;
27209;SDS011;14721;42.668;23.386;2022-09-02T13:12:40;15.73;;;9.18;;
27209;SDS011;14721;42.668;23.386;2022-09-02T13:15:45;17.52;;;8.82;;
27209;SDS011;14721;42.668;23.386;2022-09-02T13:21:31;13.10;;;9.25;;
27209;SDS011;14721;42.668;23.386;2022-09-02T13:24:24;14.88;;;9.95;;
27209;SDS011;14721;42.668;23.386;2022-09-02T13:32:33;13.80;;;8.93;;
27209;SDS011;14721;42.668;23.386;2022-09-02T13:35:06;14.98;;;8.95;;
27209;SDS011;14721;42.668;23.386;2022-09-02T13:37:41;12.25;;;7.30;;
27209;SDS011;14721;42.668;23.386;2022-09-02T13:40:24;12.95;;;8.82;;
27209;SDS011;14721;42.668;23.386;2022-09-02T13:43:14;14.52;;;9.30;;
27209;SDS011;14721;42.668;23.386;2022-09-02T13:45:45;20.25;;;10.05;;
27209;SDS011;14721;42.668;23.386;2022-09-02T13:48:22;19.02;;;11.35;;
27209;SDS011;14721;42.668;23.386;2022-09-02T13:50:52;19.42;;;10.05;;
27209;SDS011;14721;42.668;23.386;2022-09-02T13:53:23;15.05;;;9.38;;
27209;SDS011;14721;42.668;23.386;2022-09-02T13:55:53;19.08;;;10.15;;
27209;SDS011;14721;42.668;23.386;2022-09-02T14:00:53;13.85;;;8.27;;
27209;SDS011;14721;42.668;23.386;2022-09-02T14:03:19;16.35;;;9.05;;
27209;SDS011;14721;42.668;23.386;2022-09-02T14:05:49;16.73;;;9.10;;
27209;SDS011;14721;42.668;23.386;2022-09-02T14:08:24;17.95;;;10.95;;
27209;SDS011;14721;42.668;23.386;2022-09-02T14:10:53;22.13;;;8.55;;
27209;SDS011;14721;42.668;23.386;2022-09-02T14:13:20;13.00;;;7.13;;
27209;SDS011;14721;42.668;23.386;2022-09-02T14:15:47;14.93;;;8.00;;
27209;SDS011;14721;42.668;23.386;2022-09-02T14:23:48;21.10;;;9.43;;
27209;SDS011;14721;42.668;23.386;2022-09-02T14:26:19;21.33;;;11.27;;
27209;SDS011;14721;42.668;23.386;2022-09-02T14:28:50;18.50;;;10.57;;
27209;SDS011;14721;42.668;23.386;2022-09-02T14:31:23;19.38;;;9.00;;
27209;SDS011;14721;42.668;23.386;2022-09-02T14:33:55;7.55;;;4.40;;
27209;SDS011;14721;42.668;23.386;2022-09-02T14:38:51;6.45;;;5.43;;
27209;SDS011;14721;42.668;23.386;2022-09-02T14:41:31;6.75;;;4.03;;
27209;SDS011;14721;42.668;23.386;2022-09-02T14:46:59;4.18;;;2.97;;
27209;SDS011;14721;42.668;23.386;2022-09-02T14:49:28;2.63;;;2.42;;
27209;SDS011;14721;42.668;23.386;2022-09-02T14:52:01;3.30;;;2.97;;
27209;SDS011;14721;42.668;23.386;2022-09-02T14:54:47;2.47;;;2.28;;
27209;SDS011;14721;42.668;23.386;2022-09-02T14:57:24;3.13;;;2.92;;
27209;SDS011;14721;42.668;23.386;2022-09-02T14:59:54;3.00;;;2.78;;
27209;SDS011;14721;42.668;23.386;2022-09-02T15:04:56;2.60;;;2.40;;
27209;SDS011;14721;42.668;23.386;2022-09-02T15:07:25;2.15;;;2.03;;
27209;SDS011;14721;42.668;23.386;2022-09-02T15:09:51;2.78;;;2.55;;
27209;SDS011;14721;42.668;23.386;2022-09-02T15:12:20;2.33;;;2.13;;
27209;SDS011;14721;42.668;23.386;2022-09-02T15:14:57;6.20;;;3.08;;
27209;SDS011;14721;42.668;23.386;2022-09-02T15:17:24;7.90;;;4.13;;
27209;SDS011;14721;42.668;23.386;2022-09-02T15:19:50;5.20;;;2.80;;
27209;SDS011;14721;42.668;23.386;2022-09-02T15:22:16;4.25;;;3.22;;
27209;SDS011;14721;42.668;23.386;2022-09-02T15:24:44;3.72;;;3.42;;
27209;SDS011;14721;42.668;23.386;2022-09-02T15:27:11;3.65;;;3.22;;
27209;SDS011;14721;42.668;23.386;2022-09-02T15:29:37;4.30;;;3.90;;
27209;SDS011;14721;42.668;23.386;2022-09-02T15:32:03;3.97;;;3.67;;
27209;SDS011;14721;42.668;23.386;2022-09-02T15:34:36;4.93;;;2.92;;
27209;SDS011;14721;42.668;23.386;2022-09-02T15:37:01;3.75;;;3.35;;
27209;SDS011;14721;42.668;23.386;2022-09-02T15:39:27;2.63;;;2.15;;
27209;SDS011;14721;42.668;23.386;2022-09-02T15:41:53;2.72;;;2.47;;
27209;SDS011;14721;42.668;23.386;2022-09-02T15:44:22;1.60;;;1.50;;
27209;SDS011;14721;42.668;23.386;2022-09-02T15:46:49;2.90;;;2.70;;
27209;SDS011;14721;42.668;23.386;2022-09-02T15:49:16;3.85;;;2.85;;
27209;SDS011;14721;42.668;23.386;2022-09-02T15:51:42;2.13;;;1.92;;
27209;SDS011;14721;42.668;23.386;2022-09-02T15:54:11;2.90;;;2.70;;
27209;SDS011;14721;42.668;23.386;2022-09-02T15:56:39;1.60;;;1.48;;
27209;SDS011;14721;42.668;23.386;2022-09-02T15:59:08;3.75;;;2.38;;
27209;SDS011;14721;42.668;23.386;2022-09-02T16:01:36;4.13;;;2.45;;
27209;SDS011;14721;42.668;23.386;2022-09-02T16:04:07;5.25;;;3.15;;
27209;SDS011;14721;42.668;23.386;2022-09-02T16:06:34;3.03;;;2.47;;
27209;SDS011;14721;42.668;23.386;2022-09-02T16:09:02;1.80;;;1.70;;
27209;SDS011;14721;42.668;23.386;2022-09-02T16:11:28;2.78;;;1.98;;
27209;SDS011;14721;42.668;23.386;2022-09-02T16:13:53;2.40;;;2.20;;
27209;SDS011;14721;42.668;23.386;2022-09-02T16:16:19;2.22;;;1.88;;
27209;SDS011;14721;42.668;23.386;2022-09-02T16:18:50;2.15;;;2.05;;
27209;SDS011;14721;42.668;23.386;2022-09-02T16:21:17;2.63;;;2.42;;
27209;SDS011;14721;42.668;23.386;2022-09-02T16:23:46;5.53;;;2.55;;
27209;SDS011;14721;42.668;23.386;2022-09-02T16:29:03;2.75;;;2.53;;
27209;SDS011;14721;42.668;23.386;2022-09-02T16:31:31;2.95;;;2.75;;
27209;SDS011;14721;42.668;23.386;2022-09-02T16:34:02;3.30;;;3.10;;
27209;SDS011;14721;42.668;23.386;2022-09-02T16:36:30;3.75;;;3.42;;
27209;SDS011;14721;42.668;23.386;2022-09-02T16:38:57;4.90;;;3.65;;
27209;SDS011;14721;42.668;23.386;2022-09-02T16:41:29;3.40;;;3.13;;
27209;SDS011;14721;42.668;23.386;2022-09-02T16:43:59;4.22;;;3.83;;
27209;SDS011;14721;42.668;23.386;2022-09-02T16:46:27;2.97;;;2.67;;
27209;SDS011;14721;42.668;23.386;2022-09-02T16:48:54;3.58;;;3.08;;
27209;SDS011;14721;42.668;23.386;2022-09-02T16:51:20;2.88;;;2.63;;
27209;SDS011;14721;42.668;23.386;2022-09-02T16:53:52;3.70;;;3.30;;
27209;SDS011;14721;42.668;23.386;2022-09-02T16:56:21;2.38;;;2.17;;
27209;SDS011;14721;42.668;23.386;2022-09-02T16:58:48;2.15;;;1.95;;
27209;SDS011;14721;42.668;23.386;2022-09-02T17:01:14;2.03;;;1.35;;
27209;SDS011;14721;42.668;23.386;2022-09-02T17:03:40;2.22;;;1.85;;
27209;SDS011;14721;42.668;23.386;2022-09-02T17:06:07;3.78;;;2.20;;
27209;SDS011;14721;42.668;23.386;2022-09-02T17:08:33;16.77;;;2.50;;
27209;SDS011;14721;42.668;23.386;2022-09-02T17:11:14;3.97;;;2.55;;
27209;SDS011;14721;42.668;23.386;2022-09-02T17:13:49;1.48;;;1.25;;